Time;durP1;ratioP1;P1;durP2;ratioP2;P2;SDS_P1;SDS_P2;PMS_P1;PMS_P2;Temp;Humidity;BMP_temperature;BMP_pressure;BME280_temperature;BME280_humidity;BME280_pressure;Samples;Min_cycle;Max_cycle;Signal;HPM_P1;HPM_P2
2023/12/22 00:01:56;;;;;;;25.65;23.02;;;;;;;5.04;100.00;95931.81;5093938;28;20054;-67
2023/12/22 00:04:21;;;;;;;26.85;24.15;;;;;;;5.03;100.00;95912.75;5091919;28;20555;-67
2023/12/22 00:06:48;;;;;;;25.58;22.98;;;;;;;5.41;100.00;95908.47;5094028;28;20509;-67
2023/12/22 00:09:14;;;;;;;23.13;20.88;;;;;;;5.18;100.00;95902.19;5089112;28;20024;-67
2023/12/22 00:11:39;;;;;;;22.98;20.80;;;;;;;5.13;100.00;95894.69;5087885;28;20020;-67
2023/12/22 00:14:04;;;;;;;24.58;22.33;;;;;;;5.02;100.00;95877.97;5087253;28;20046;-67
2023/12/22 00:16:30;;;;;;;20.90;18.80;;;;;;;4.97;100.00;95868.75;5096907;28;20054;-67
2023/12/22 00:18:56;;;;;;;21.15;19.08;;;;;;;4.98;100.00;95870.47;5090377;28;20475;-67
2023/12/22 00:21:21;;;;;;;20.67;18.63;;;;;;;4.99;100.00;95866.91;5088270;28;20027;-68
2023/12/22 00:23:46;;;;;;;27.33;24.83;;;;;;;4.99;100.00;95872.13;5100041;28;20023;-67
2023/12/22 00:26:12;;;;;;;33.88;29.67;;;;;;;4.98;100.00;95881.72;5086925;28;20050;-67
2023/12/22 00:28:37;;;;;;;29.08;26.08;;;;;;;5.03;100.00;95899.69;5090496;28;20070;-67
2023/12/22 00:31:03;;;;;;;35.17;28.10;;;;;;;5.05;100.00;95894.34;5095429;28;20510;-67
2023/12/22 00:33:28;;;;;;;26.33;22.60;;;;;;;5.07;100.00;95908.97;5087715;28;20034;-68
2023/12/22 00:35:53;;;;;;;24.67;21.90;;;;;;;5.04;100.00;95908.34;5093881;28;20381;-68
2023/12/22 00:38:19;;;;;;;20.92;18.90;;;;;;;5.00;100.00;95912.94;5093640;28;20043;-67
2023/12/22 00:40:44;;;;;;;21.52;19.45;;;;;;;5.01;100.00;95904.19;5093650;28;20028;-67
2023/12/22 00:43:10;;;;;;;22.25;20.02;;;;;;;5.03;100.00;95897.06;5092683;28;20044;-67
2023/12/22 00:45:35;;;;;;;22.20;20.10;;;;;;;5.00;100.00;95879.84;5094123;28;20104;-67
2023/12/22 00:48:00;;;;;;;24.73;19.48;;;;;;;5.03;100.00;95884.03;5093862;28;20051;-67
2023/12/22 00:50:26;;;;;;;22.90;20.52;;;;;;;5.02;100.00;95877.13;5092963;28;20040;-67
2023/12/22 00:52:51;;;;;;;21.95;19.73;;;;;;;5.08;100.00;95875.88;5093361;28;20034;-67
2023/12/22 00:55:17;;;;;;;21.33;19.23;;;;;;;5.05;100.00;95870.84;5089634;28;20111;-67
2023/12/22 00:57:42;;;;;;;25.08;22.48;;;;;;;5.02;100.00;95857.09;5093738;28;20408;-67
2023/12/22 01:00:11;;;;;;;23.67;21.00;;;;;;;5.03;100.00;95868.38;5091150;28;20032;-67
2023/12/22 01:02:37;;;;;;;24.35;21.88;;;;;;;4.99;100.00;95882.56;5089224;28;20039;-67
2023/12/22 01:05:03;;;;;;;23.38;20.23;;;;;;;4.99;100.00;95862.50;5092471;28;20032;-68
2023/12/22 01:07:29;;;;;;;28.20;25.02;;;;;;;5.02;100.00;95862.31;5087755;28;20031;-67
2023/12/22 01:09:54;;;;;;;27.25;24.48;;;;;;;5.05;100.00;95860.41;5092801;28;20036;-67
2023/12/22 01:12:19;;;;;;;24.17;22.08;;;;;;;5.05;100.00;95874.31;5090042;28;20034;-67
2023/12/22 01:14:45;;;;;;;21.90;18.35;;;;;;;5.02;100.00;95885.78;5093653;28;20020;-68
2023/12/22 01:17:11;;;;;;;21.92;17.42;;;;;;;5.07;100.00;95890.72;5093451;28;20118;-67
2023/12/22 01:19:36;;;;;;;16.65;13.02;;;;;;;5.16;100.00;95908.34;5091009;28;20058;-67
2023/12/22 01:22:02;;;;;;;13.77;12.57;;;;;;;5.22;100.00;95908.91;5095288;28;20029;-67
2023/12/22 01:24:27;;;;;;;13.93;12.52;;;;;;;5.21;100.00;95920.28;5089676;28;20078;-67
2023/12/22 01:26:53;;;;;;;14.15;12.48;;;;;;;5.16;100.00;95921.41;5091409;28;20114;-68
2023/12/22 01:29:18;;;;;;;19.13;17.20;;;;;;;5.14;100.00;95918.06;5090948;28;20025;-67
2023/12/22 01:31:44;;;;;;;17.92;16.02;;;;;;;5.25;100.00;95921.75;5090726;28;20048;-67
2023/12/22 01:34:09;;;;;;;15.07;13.60;;;;;;;5.30;100.00;95922.25;5085921;28;20407;-67
2023/12/22 01:36:34;;;;;;;19.52;17.75;;;;;;;5.26;100.00;95920.78;5094154;28;20099;-67
2023/12/22 01:39:00;;;;;;;28.00;23.85;;;;;;;5.16;100.00;95921.41;5091368;28;20043;-67
2023/12/22 01:41:25;;;;;;;30.70;25.58;;;;;;;5.15;100.00;95924.13;5083063;28;20083;-67
2023/12/22 01:43:50;;;;;;;87.05;60.97;;;;;;;5.13;100.00;95926.81;5091333;28;20032;-67
2023/12/22 01:46:17;;;;;;;58.08;42.10;;;;;;;5.12;100.00;95914.72;5087900;28;20032;-67
2023/12/22 01:48:43;;;;;;;35.08;31.58;;;;;;;5.12;100.00;95919.94;5091268;28;20099;-67
2023/12/22 01:51:08;;;;;;;29.75;24.75;;;;;;;5.08;100.00;95928.91;5092767;28;20081;-67
2023/12/22 01:53:34;;;;;;;24.00;21.83;;;;;;;5.08;100.00;95930.66;5091130;28;20036;-67
2023/12/22 01:56:01;;;;;;;26.35;23.63;;;;;;;5.12;100.00;95937.38;5082323;28;20493;-67
2023/12/22 01:58:29;;;;;;;22.90;20.58;;;;;;;5.09;100.00;95933.19;5081297;28;20016;-67
2023/12/22 02:00:55;;;;;;;29.23;26.45;;;;;;;5.10;100.00;95936.66;5083295;28;20558;-67
2023/12/22 02:03:21;;;;;;;25.80;23.23;;;;;;;5.10;100.00;95942.69;5087237;28;20024;-67
2023/12/22 02:05:47;;;;;;;23.58;21.33;;;;;;;5.08;100.00;95955.00;5091986;28;20089;-67
2023/12/22 02:08:13;;;;;;;20.48;18.45;;;;;;;5.08;100.00;95978.50;5088459;28;20449;-67
2023/12/22 02:10:38;;;;;;;19.30;17.50;;;;;;;5.08;100.00;95973.28;5090167;28;20020;-67
2023/12/22 02:13:05;;;;;;;22.20;19.98;;;;;;;5.44;100.00;95963.09;5089333;28;20016;-67
2023/12/22 02:15:32;;;;;;;26.98;24.45;;;;;;;5.30;100.00;95964.03;5083673;28;20043;-67
2023/12/22 02:18:16;;;;;;;15.50;13.88;;;;;;;5.48;100.00;95953.28;5087283;28;20103;-67
2023/12/22 02:20:44;;;;;;;17.95;16.05;;;;;;;5.35;100.00;95956.72;5087949;28;20513;-67
2023/12/22 02:23:09;;;;;;;20.17;18.13;;;;;;;5.26;100.00;95934.66;5091586;28;20084;-67
2023/12/22 02:25:34;;;;;;;21.52;18.35;;;;;;;5.24;100.00;95923.50;5088793;28;20029;-67
2023/12/22 02:28:10;;;;;;;19.27;17.08;;;;;;;5.22;100.00;95909.72;5084771;28;20016;-67
2023/12/22 02:30:54;;;;;;;20.90;17.67;;;;;;;5.25;100.00;95890.41;5088299;28;20136;-67
2023/12/22 02:33:22;;;;;;;23.13;21.02;;;;;;;5.19;100.00;95869.94;5089716;28;20032;-67
2023/12/22 02:35:50;;;;;;;14.48;12.52;;;;;;;5.28;100.00;95874.53;5091103;28;20055;-67
2023/12/22 02:38:16;;;;;;;15.73;14.13;;;;;;;5.25;100.00;95877.34;5087935;28;20242;-67
2023/12/22 02:40:42;;;;;;;17.92;16.30;;;;;;;5.33;100.00;95866.41;5093894;28;20065;-67
2023/12/22 02:43:08;;;;;;;18.10;16.30;;;;;;;5.26;100.00;95874.63;5084934;28;20516;-67
2023/12/22 02:45:34;;;;;;;13.35;12.02;;;;;;;5.23;100.00;95880.06;5092493;28;20029;-67
2023/12/22 02:47:59;;;;;;;19.08;17.38;;;;;;;5.21;100.00;95881.13;5076937;28;20102;-67
2023/12/22 02:50:25;;;;;;;26.10;19.92;;;;;;;5.19;100.00;95877.75;5090625;28;20024;-67
2023/12/22 02:52:50;;;;;;;17.63;14.25;;;;;;;5.19;100.00;95877.75;5088284;28;20024;-67
2023/12/22 02:55:16;;;;;;;17.63;15.73;;;;;;;5.16;100.00;95881.44;5085203;28;20023;-67
2023/12/22 02:57:41;;;;;;;19.38;15.75;;;;;;;5.10;100.00;95860.97;5089071;28;20016;-67
2023/12/22 03:00:07;;;;;;;18.40;15.95;;;;;;;5.04;100.00;95870.03;5086232;28;20031;-67
2023/12/22 03:02:33;;;;;;;16.17;13.88;;;;;;;5.01;100.00;95865.03;5091694;28;20107;-67
2023/12/22 03:04:58;;;;;;;14.15;12.65;;;;;;;4.99;100.00;95875.56;5090823;28;20055;-67
2023/12/22 03:07:23;;;;;;;15.13;13.63;;;;;;;5.00;100.00;95872.00;5089835;28;20056;-67
2023/12/22 03:09:49;;;;;;;16.95;15.18;;;;;;;5.02;100.00;95882.34;5094970;28;20027;-67
2023/12/22 03:12:14;;;;;;;15.90;14.23;;;;;;;5.05;100.00;95887.38;5092460;28;20028;-67
2023/12/22 03:14:40;;;;;;;14.02;12.73;;;;;;;5.05;100.00;95884.75;5090144;28;20107;-67
2023/12/22 03:17:06;;;;;;;16.55;14.85;;;;;;;5.07;100.00;95874.19;5091992;28;20539;-67
2023/12/22 03:19:33;;;;;;;14.50;13.20;;;;;;;5.02;100.00;95871.91;5086481;28;20048;-67
2023/12/22 03:21:59;;;;;;;13.07;11.68;;;;;;;5.02;100.00;95872.75;5092033;28;20020;-67
2023/12/22 03:24:25;;;;;;;12.18;10.98;;;;;;;5.01;100.00;95867.63;5091618;28;20088;-67
2023/12/22 03:26:51;;;;;;;12.85;11.65;;;;;;;4.99;100.00;95866.91;5091419;28;20024;-67
2023/12/22 03:29:17;;;;;;;11.80;10.68;;;;;;;4.98;100.00;95860.03;5084923;28;20024;-67
2023/12/22 03:31:43;;;;;;;13.07;11.77;;;;;;;4.99;100.00;95849.47;5089353;28;20028;-67
2023/12/22 03:34:09;;;;;;;12.15;10.98;;;;;;;5.00;100.00;95858.16;5091991;28;20039;-67
2023/12/22 03:36:34;;;;;;;12.25;10.80;;;;;;;5.04;100.00;95858.75;5072951;28;20032;-67
2023/12/22 03:39:00;;;;;;;11.43;10.25;;;;;;;5.01;100.00;95867.63;5088757;28;20472;-67
2023/12/22 03:41:25;;;;;;;10.10;8.18;;;;;;;5.13;100.00;95858.97;5084681;28;20140;-67
2023/12/22 03:43:51;;;;;;;6.85;6.00;;;;;;;5.44;100.00;95861.25;5090696;28;20036;-67
2023/12/22 03:46:16;;;;;;;6.72;6.13;;;;;;;5.45;100.00;95860.31;5085197;28;20405;-67
2023/12/22 03:48:41;;;;;;;8.07;7.05;;;;;;;5.29;100.00;95853.53;5093918;28;20027;-67
2023/12/22 03:51:07;;;;;;;23.15;15.85;;;;;;;5.30;100.00;95846.53;5091826;28;20022;-67
2023/12/22 03:53:32;;;;;;;10.00;7.53;;;;;;;5.32;100.00;95849.88;5093808;28;20020;-67
2023/12/22 03:55:58;;;;;;;8.68;7.00;;;;;;;5.27;100.00;95846.75;5089573;28;20012;-67
2023/12/22 03:58:24;;;;;;;5.25;4.75;;;;;;;5.20;100.00;95842.91;5085262;28;20020;-67
2023/12/22 04:00:49;;;;;;;3.55;3.10;;;;;;;5.25;100.00;95840.81;5086243;28;20032;-67
2023/12/22 04:03:15;;;;;;;2.83;2.63;;;;;;;5.29;100.00;95850.09;5087152;28;20109;-67
2023/12/22 04:05:40;;;;;;;2.90;2.70;;;;;;;5.40;100.00;95849.34;5089889;28;20056;-67
2023/12/22 04:08:06;;;;;;;2.42;2.20;;;;;;;5.38;100.00;95853.84;5090698;28;20099;-67
2023/12/22 04:10:31;;;;;;;6.38;5.88;;;;;;;5.28;100.00;95851.84;5093254;28;20032;-67
2023/12/22 04:12:57;;;;;;;7.40;6.68;;;;;;;5.22;100.00;95859.31;5089351;28;20024;-67
2023/12/22 04:15:22;;;;;;;6.03;5.53;;;;;;;5.19;100.00;95867.31;5090880;28;20059;-68
2023/12/22 04:17:49;;;;;;;7.40;4.97;;;;;;;5.18;100.00;95861.28;5086243;28;20123;-67
2023/12/22 04:20:14;;;;;;;4.35;3.95;;;;;;;5.17;100.00;95864.81;5087746;28;20079;-67
2023/12/22 04:22:40;;;;;;;7.93;5.80;;;;;;;5.16;100.00;95857.94;5090315;28;20025;-67
2023/12/22 04:25:06;;;;;;;5.97;4.88;;;;;;;5.15;100.00;95870.13;5084325;28;20027;-67
2023/12/22 04:27:31;;;;;;;4.70;4.30;;;;;;;5.15;100.00;95869.31;5086603;28;20028;-68
2023/12/22 04:29:57;;;;;;;5.13;3.00;;;;;;;5.56;100.00;95870.88;5090621;28;20031;-67
2023/12/22 04:32:22;;;;;;;2.33;2.22;;;;;;;5.44;100.00;95874.31;5090307;28;20063;-67
2023/12/22 04:34:48;;;;;;;4.45;2.90;;;;;;;5.55;100.00;95873.56;5093090;28;20625;-67
2023/12/22 04:37:13;;;;;;;3.47;3.28;;;;;;;5.56;100.00;95867.41;5094686;28;20062;-67
2023/12/22 04:39:38;;;;;;;3.90;3.60;;;;;;;5.65;100.00;95869.38;5089378;28;20493;-67
2023/12/22 04:42:04;;;;;;;4.10;3.80;;;;;;;5.63;100.00;95884.31;5090767;28;20039;-67
2023/12/22 04:44:29;;;;;;;5.20;4.80;;;;;;;5.59;100.00;95885.47;5097361;28;20023;-67
2023/12/22 04:46:54;;;;;;;5.40;4.93;;;;;;;5.43;100.00;95891.78;5091319;28;20488;-67
2023/12/22 04:49:20;;;;;;;5.00;4.60;;;;;;;5.51;100.00;95891.22;5091285;28;20386;-67
2023/12/22 04:51:45;;;;;;;7.70;5.03;;;;;;;5.47;100.00;95908.03;5090968;28;20489;-67
2023/12/22 04:54:10;;;;;;;22.60;17.13;;;;;;;5.86;100.00;95916.69;5090415;28;20369;-67
2023/12/22 04:56:36;;;;;;;11.60;10.55;;;;;;;5.62;100.00;95919.22;5088503;28;20111;-67
2023/12/22 04:59:01;;;;;;;7.63;6.93;;;;;;;5.43;100.00;95928.34;5090055;28;20052;-67
2023/12/22 05:01:27;;;;;;;4.75;4.40;;;;;;;5.48;100.00;95942.84;5091196;28;20401;-67
2023/12/22 05:03:53;;;;;;;2.65;2.45;;;;;;;5.76;100.00;95952.25;5090749;28;20523;-67
2023/12/22 05:06:19;;;;;;;3.40;3.20;;;;;;;5.75;100.00;95953.19;5092221;28;20040;-67
2023/12/22 05:08:45;;;;;;;4.82;3.38;;;;;;;5.63;100.00;95960.06;5094313;28;20084;-67
2023/12/22 05:11:10;;;;;;;4.38;3.97;;;;;;;5.49;100.00;95973.25;5094974;28;20019;-67
2023/12/22 05:13:36;;;;;;;5.00;4.60;;;;;;;5.50;100.00;95974.91;5088577;28;20034;-67
2023/12/22 05:16:01;;;;;;;4.70;4.40;;;;;;;5.41;100.00;95982.41;5091503;28;20471;-67
2023/12/22 05:18:27;;;;;;;6.55;5.93;;;;;;;5.36;100.00;95989.72;5091918;28;20032;-67
2023/12/22 05:20:53;;;;;;;5.50;4.57;;;;;;;5.59;100.00;96005.63;5091311;28;20031;-67
2023/12/22 05:23:19;;;;;;;16.63;9.25;;;;;;;5.54;100.00;96015.53;5087482;28;20040;-67
2023/12/22 05:25:44;;;;;;;4.10;3.78;;;;;;;5.55;100.00;96012.00;5095649;28;20031;-67
2023/12/22 05:28:09;;;;;;;4.00;3.80;;;;;;;5.52;100.00;96018.25;5090424;28;20556;-67
2023/12/22 05:30:35;;;;;;;3.10;2.80;;;;;;;5.54;100.00;96036.44;5094738;28;20028;-67
2023/12/22 05:33:00;;;;;;;3.17;2.97;;;;;;;5.51;100.00;96034.03;5080721;28;20090;-67
2023/12/22 05:35:25;;;;;;;4.85;3.63;;;;;;;5.44;100.00;96042.28;5089145;28;20027;-67
2023/12/22 05:37:51;;;;;;;6.22;5.55;;;;;;;5.39;100.00;96041.72;5088675;28;20054;-67
2023/12/22 05:40:16;;;;;;;6.60;6.00;;;;;;;5.41;100.00;96039.84;5092705;28;20043;-68
2023/12/22 05:42:42;;;;;;;6.88;6.28;;;;;;;5.39;100.00;96051.34;5093202;28;20020;-67
2023/12/22 05:45:08;;;;;;;6.10;5.63;;;;;;;5.36;100.00;96051.56;5087264;28;20082;-67
2023/12/22 05:47:33;;;;;;;4.72;4.30;;;;;;;5.37;100.00;96048.84;5090980;28;20028;-68
2023/12/22 05:49:59;;;;;;;33.42;25.38;;;;;;;5.33;100.00;96065.66;5095662;28;20373;-67
2023/12/22 05:52:24;;;;;;;13.77;11.77;;;;;;;5.42;100.00;96069.44;5088693;28;20683;-67
2023/12/22 05:54:50;;;;;;;6.63;6.03;;;;;;;5.37;100.00;96077.56;5087220;28;20476;-67
2023/12/22 05:57:16;;;;;;;4.00;3.70;;;;;;;5.32;100.00;96077.03;5089956;28;20059;-67
2023/12/22 05:59:42;;;;;;;3.83;3.63;;;;;;;5.28;100.00;96079.00;5094013;28;20121;-67
2023/12/22 06:02:07;;;;;;;3.53;3.25;;;;;;;5.26;100.00;96087.88;5095077;28;20368;-67
2023/12/22 06:04:33;;;;;;;4.60;4.20;;;;;;;5.24;100.00;96087.16;5094151;28;20472;-67
2023/12/22 06:06:59;;;;;;;10.40;8.18;;;;;;;5.22;100.00;96082.00;5090177;28;20583;-67
2023/12/22 06:09:24;;;;;;;65.15;59.35;;;;;;;5.24;100.00;96085.34;5092403;28;20039;-67
2023/12/22 06:11:49;;;;;;;55.50;49.83;;;;;;;5.21;100.00;96080.34;5096445;28;20031;-67
2023/12/22 06:14:15;;;;;;;9.63;8.82;;;;;;;5.25;100.00;96083.59;5087576;28;20032;-67
2023/12/22 06:16:40;;;;;;;8.90;8.02;;;;;;;5.19;100.00;96091.81;5092522;28;20035;-67
2023/12/22 06:19:06;;;;;;;6.85;6.15;;;;;;;5.15;100.00;96094.59;5092477;28;20131;-67
2023/12/22 06:21:31;;;;;;;8.65;6.57;;;;;;;5.10;100.00;96094.06;5098878;28;20028;-67
2023/12/22 06:23:57;;;;;;;19.05;17.45;;;;;;;5.12;100.00;96092.19;5089452;28;20065;-67
2023/12/22 06:26:22;;;;;;;26.65;24.52;;;;;;;5.14;100.00;96076.47;5091294;28;20032;-67
2023/12/22 06:28:48;;;;;;;9.20;6.80;;;;;;;5.16;100.00;96059.75;5093109;28;20502;-67
2023/12/22 06:31:19;;;;;;;5.32;4.88;;;;;;;5.20;100.00;96057.78;5100965;28;20032;-67
2023/12/22 06:33:45;;;;;;;8.05;7.35;;;;;;;5.13;100.00;96052.13;5094867;28;20028;-67
2023/12/22 06:36:20;;;;;;;6.80;6.38;;;;;;;5.11;100.00;96061.00;5088814;28;20062;-67
2023/12/22 06:38:55;;;;;;;4.88;4.57;;;;;;;5.04;100.00;96065.78;5095443;28;20048;-68
2023/12/22 06:41:29;;;;;;;5.35;4.78;;;;;;;5.05;100.00;96064.84;5093307;28;20059;-68
2023/12/22 06:43:55;;;;;;;5.18;4.78;;;;;;;5.06;100.00;96057.81;5092931;28;20031;-68
2023/12/22 06:46:23;;;;;;;12.98;11.13;;;;;;;5.04;100.00;96055.31;5092879;28;20059;-67
2023/12/22 06:48:49;;;;;;;14.48;12.93;;;;;;;5.04;100.00;96049.25;5095341;28;20034;-68
2023/12/22 06:51:22;;;;;;;14.27;11.00;;;;;;;5.04;100.00;96044.88;5094892;28;20126;-70
2023/12/22 06:53:48;;;;;;;15.77;14.13;;;;;;;5.00;100.00;96041.63;5093052;28;20032;-65
2023/12/22 06:56:26;;;;;;;11.55;9.85;;;;;;;5.01;100.00;96027.66;5096090;28;20401;-69
2023/12/22 06:58:53;;;;;;;8.52;7.82;;;;;;;5.24;100.00;96037.53;5103598;28;20368;-72
2023/12/22 07:01:24;;;;;;;5.97;5.47;;;;;;;5.29;100.00;96048.50;5098123;28;20611;-68
2023/12/22 07:03:50;;;;;;;5.55;5.15;;;;;;;5.32;100.00;96055.31;5097681;28;20032;-69
2023/12/22 07:06:20;;;;;;;6.13;5.53;;;;;;;5.20;100.00;96062.19;5093973;28;20069;-68
2023/12/22 07:09:14;;;;;;;12.77;11.57;;;;;;;5.37;100.00;96068.91;5093473;28;20107;-66
2023/12/22 07:11:40;;;;;;;14.68;13.27;;;;;;;5.33;100.00;96070.03;5094884;28;20023;-67
2023/12/22 07:14:05;;;;;;;11.18;10.20;;;;;;;5.20;100.00;96067.41;5093248;28;20103;-68
2023/12/22 07:16:32;;;;;;;12.68;11.38;;;;;;;5.14;100.00;96079.06;5093263;28;20067;-68
2023/12/22 07:18:58;;;;;;;11.25;10.23;;;;;;;5.10;100.00;96072.38;5100265;28;20048;-67
2023/12/22 07:21:24;;;;;;;13.73;12.45;;;;;;;5.07;100.00;96067.31;5102305;28;20707;-67
2023/12/22 07:23:49;;;;;;;13.77;12.48;;;;;;;5.06;100.00;96056.06;5100158;28;20020;-68
2023/12/22 07:26:14;;;;;;;14.70;13.30;;;;;;;5.08;100.00;96059.41;5087683;28;20020;-68
2023/12/22 07:28:40;;;;;;;12.73;10.93;;;;;;;5.08;100.00;96063.78;5089972;28;20101;-67
2023/12/22 07:31:05;;;;;;;12.45;11.13;;;;;;;5.06;100.00;96065.66;5092861;28;20081;-67
2023/12/22 07:33:31;;;;;;;12.95;11.90;;;;;;;5.07;100.00;96065.56;5090717;28;20089;-67
2023/12/22 07:35:56;;;;;;;11.57;10.57;;;;;;;5.06;100.00;96058.69;5099012;28;20089;-68
2023/12/22 07:38:22;;;;;;;12.13;11.02;;;;;;;5.06;100.00;96073.47;5096348;28;20032;-67
2023/12/22 07:40:47;;;;;;;12.63;11.63;;;;;;;5.07;100.00;96052.53;5104411;28;20142;-67
2023/12/22 07:43:14;;;;;;;16.70;15.00;;;;;;;5.06;100.00;96058.69;5097746;28;20023;-68
2023/12/22 07:45:39;;;;;;;12.82;11.48;;;;;;;5.06;100.00;96050.00;5094959;28;20036;-67
2023/12/22 07:48:05;;;;;;;13.23;10.85;;;;;;;5.10;100.00;96056.72;5091539;28;20058;-67
2023/12/22 07:50:30;;;;;;;12.00;10.18;;;;;;;5.11;100.00;96046.16;5091062;28;20031;-68
2023/12/22 07:52:55;;;;;;;11.50;10.35;;;;;;;5.12;100.00;96047.84;5086124;28;20031;-67
2023/12/22 07:55:21;;;;;;;10.93;9.32;;;;;;;5.16;100.00;96051.09;5083960;28;20052;-68
2023/12/22 07:57:46;;;;;;;10.25;9.35;;;;;;;5.18;100.00;96053.59;5088837;28;20056;-67
2023/12/22 08:00:12;;;;;;;15.20;10.38;;;;;;;5.20;100.00;96056.97;5088645;28;20028;-67
2023/12/22 08:02:38;;;;;;;11.13;10.13;;;;;;;5.20;100.00;96054.34;5099191;28;20028;-67
2023/12/22 08:05:04;;;;;;;11.45;10.32;;;;;;;5.22;100.00;96062.91;5092871;28;20073;-67
2023/12/22 08:07:29;;;;;;;14.02;12.82;;;;;;;5.30;100.00;96061.47;5094173;28;20092;-67
2023/12/22 08:09:56;;;;;;;12.05;10.93;;;;;;;5.44;100.00;96060.56;5101474;28;20030;-68
2023/12/22 08:12:22;;;;;;;15.75;14.20;;;;;;;5.34;100.00;96058.66;5091381;28;20035;-67
2023/12/22 08:14:47;;;;;;;16.58;15.02;;;;;;;5.36;100.00;96064.63;5094782;28;20027;-68
2023/12/22 08:17:13;;;;;;;15.30;13.75;;;;;;;5.35;100.00;96066.38;5089837;28;20150;-68
2023/12/22 08:19:42;;;;;;;14.32;12.85;;;;;;;5.35;100.00;96069.00;5095236;28;20048;-68
2023/12/22 08:22:08;;;;;;;15.85;13.23;;;;;;;5.34;100.00;96075.16;5093648;28;20031;-68
2023/12/22 08:24:33;;;;;;;15.05;13.65;;;;;;;5.36;100.00;96078.50;5094215;28;20056;-67
2023/12/22 08:26:59;;;;;;;15.35;13.20;;;;;;;5.38;100.00;96084.44;5091678;28;20154;-67
2023/12/22 08:29:24;;;;;;;13.45;12.05;;;;;;;5.40;100.00;96082.56;5097299;28;20034;-67
2023/12/22 08:31:50;;;;;;;12.65;11.35;;;;;;;5.43;100.00;96084.16;5091601;28;20047;-68
2023/12/22 08:34:15;;;;;;;13.13;11.82;;;;;;;5.45;100.00;96084.91;5093041;28;20054;-68
2023/12/22 08:36:40;;;;;;;13.02;11.77;;;;;;;5.47;100.00;96076.97;5097534;28;20112;-67
2023/12/22 08:39:06;;;;;;;14.95;12.50;;;;;;;5.46;100.00;96083.94;5094765;28;20027;-67
2023/12/22 08:41:35;;;;;;;14.77;13.38;;;;;;;5.50;100.00;96082.00;5095680;28;20070;-67
2023/12/22 08:44:02;;;;;;;15.32;12.90;;;;;;;5.56;100.00;96078.97;5094423;28;20036;-67
2023/12/22 08:46:28;;;;;;;14.45;13.07;;;;;;;5.62;100.00;96089.00;5096373;28;20032;-67
2023/12/22 08:48:53;;;;;;;12.07;10.20;;;;;;;5.68;100.00;96088.63;5093245;28;20076;-67
2023/12/22 08:51:18;;;;;;;11.65;10.45;;;;;;;5.90;100.00;96097.63;5093136;28;20067;-67
2023/12/22 08:53:44;;;;;;;15.77;14.20;;;;;;;5.90;100.00;96102.00;5086462;28;20028;-67
2023/12/22 08:56:09;;;;;;;21.02;18.88;;;;;;;6.26;100.00;96109.16;5087422;28;20047;-67
2023/12/22 08:58:35;;;;;;;14.75;13.30;;;;;;;5.98;100.00;96124.06;5091587;28;20035;-68
2023/12/22 09:01:00;;;;;;;20.20;18.27;;;;;;;5.95;100.00;96132.13;5086233;28;20495;-67
2023/12/22 09:03:27;;;;;;;26.33;23.90;;;;;;;5.98;100.00;96134.53;5089112;28;20528;-67
2023/12/22 09:05:52;;;;;;;29.60;26.90;;;;;;;6.05;100.00;96157.66;5086880;28;20032;-68
2023/12/22 09:08:18;;;;;;;26.55;23.00;;;;;;;6.11;100.00;96157.28;5095048;28;20493;-67
2023/12/22 09:10:45;;;;;;;15.57;13.98;;;;;;;6.15;100.00;96169.19;5089366;28;20098;-68
2023/12/22 09:13:11;;;;;;;13.10;11.13;;;;;;;6.19;100.00;96181.13;5091553;28;20038;-67
2023/12/22 09:15:36;;;;;;;11.65;10.50;;;;;;;6.21;100.00;96187.09;5091474;28;20432;-67
2023/12/22 09:18:02;;;;;;;12.88;11.23;;;;;;;6.30;100.00;96198.72;5095491;28;20028;-67
2023/12/22 09:20:29;;;;;;;13.13;10.60;;;;;;;6.34;100.00;96213.25;5090440;28;20044;-68
2023/12/22 09:22:55;;;;;;;11.52;9.82;;;;;;;6.50;100.00;96228.75;5097971;28;20020;-68
2023/12/22 09:25:22;;;;;;;11.88;10.32;;;;;;;6.53;100.00;96231.19;5089998;28;20038;-68
2023/12/22 09:27:47;;;;;;;11.02;9.38;;;;;;;6.37;100.00;96248.84;5091499;28;20032;-67
2023/12/22 09:30:13;;;;;;;11.77;9.02;;;;;;;6.30;100.00;96264.09;5094291;28;20052;-67
2023/12/22 09:32:38;;;;;;;8.63;7.82;;;;;;;6.32;100.00;96271.84;5085340;28;20608;-68
2023/12/22 09:35:04;;;;;;;8.88;7.65;;;;;;;6.35;100.00;96280.31;5087782;28;20028;-68
2023/12/22 09:37:30;;;;;;;9.98;6.72;;;;;;;6.37;100.00;96286.28;5090219;28;20024;-68
2023/12/22 09:39:55;;;;;;;8.38;7.47;;;;;;;6.30;100.00;96280.63;5093269;28;20091;-67
2023/12/22 09:42:21;;;;;;;8.75;7.38;;;;;;;6.30;100.00;96282.41;5095974;28;20031;-68
2023/12/22 09:44:49;;;;;;;15.38;12.35;;;;;;;6.33;100.00;96300.50;5094156;28;20129;-67
2023/12/22 09:47:17;;;;;;;17.48;13.77;;;;;;;6.34;100.00;96301.34;5088845;28;20485;-68
2023/12/22 09:49:44;;;;;;;12.02;10.18;;;;;;;6.28;100.00;96308.63;5095518;28;20059;-67
2023/12/22 09:52:11;;;;;;;12.57;8.90;;;;;;;6.32;100.00;96301.44;5087336;28;20502;-68
2023/12/22 09:54:37;;;;;;;9.65;7.53;;;;;;;6.41;100.00;96300.00;5083313;28;20047;-68
2023/12/22 09:57:04;;;;;;;7.45;5.65;;;;;;;6.40;100.00;96301.75;5087718;28;20073;-67
2023/12/22 09:59:31;;;;;;;8.27;6.47;;;;;;;6.46;100.00;96313.59;5091192;28;20051;-67
2023/12/22 10:01:57;;;;;;;11.85;9.25;;;;;;;6.52;100.00;96310.59;5087899;28;20053;-67
2023/12/22 10:04:23;;;;;;;11.43;9.85;;;;;;;6.50;100.00;96315.06;5087977;28;20460;-68
2023/12/22 10:06:50;;;;;;;9.02;7.43;;;;;;;6.52;100.00;96308.00;5100547;28;20352;-68
2023/12/22 10:09:16;;;;;;;7.50;5.10;;;;;;;6.56;100.00;96312.06;5090790;28;20052;-67
2023/12/22 10:11:43;;;;;;;6.72;6.03;;;;;;;6.64;100.00;96310.72;5100459;28;20029;-67
2023/12/22 10:14:09;;;;;;;10.20;5.53;;;;;;;6.69;100.00;96313.84;5100981;28;20485;-67
2023/12/22 10:16:36;;;;;;;10.90;8.80;;;;;;;6.77;100.00;96318.56;5096271;28;20024;-67
2023/12/22 10:19:02;;;;;;;14.82;13.25;;;;;;;6.72;100.00;96316.25;5094151;28;20035;-67
2023/12/22 10:21:27;;;;;;;9.68;7.50;;;;;;;6.74;100.00;96309.13;5085193;28;20145;-67
2023/12/22 10:23:52;;;;;;;6.90;6.20;;;;;;;6.80;100.00;96293.06;5093086;28;20030;-67
2023/12/22 10:26:19;;;;;;;7.13;5.65;;;;;;;6.79;100.00;96285.28;5094067;28;20075;-67
2023/12/22 10:28:48;;;;;;;5.60;5.10;;;;;;;6.80;100.00;96284.34;5094073;28;20660;-67
2023/12/22 10:31:14;;;;;;;7.50;6.60;;;;;;;6.83;100.00;96282.38;5090760;28;20115;-67
2023/12/22 10:33:39;;;;;;;10.43;9.40;;;;;;;6.85;100.00;96280.47;5089726;28;20094;-67
2023/12/22 10:36:07;;;;;;;9.63;8.68;;;;;;;6.88;100.00;96284.69;5093735;28;20020;-67
2023/12/22 10:38:36;;;;;;;12.55;10.02;;;;;;;6.88;100.00;96277.66;5091674;28;20063;-67
2023/12/22 10:41:03;;;;;;;11.88;10.25;;;;;;;6.90;100.00;96281.94;5088134;28;20031;-67
2023/12/22 10:43:29;;;;;;;9.50;8.60;;;;;;;6.92;100.00;96282.66;5093491;28;20030;-67
2023/12/22 10:45:55;;;;;;;8.13;7.32;;;;;;;6.97;100.00;96281.41;5088447;28;20023;-67
2023/12/22 10:48:21;;;;;;;9.07;7.00;;;;;;;6.96;100.00;96287.59;5091080;28;20039;-67
2023/12/22 10:50:48;;;;;;;7.20;5.18;;;;;;;6.87;100.00;96270.75;5092422;28;20088;-67
2023/12/22 10:53:13;;;;;;;6.40;5.10;;;;;;;6.87;100.00;96275.97;5088632;28;20093;-67
2023/12/22 10:55:38;;;;;;;5.22;4.00;;;;;;;6.91;100.00;96271.38;5089885;28;20083;-67
2023/12/22 10:58:05;;;;;;;26.67;12.65;;;;;;;7.04;100.00;96279.22;5088329;28;20121;-67
2023/12/22 11:00:32;;;;;;;13.50;9.35;;;;;;;7.20;100.00;96278.19;5093152;28;20030;-67
2023/12/22 11:03:02;;;;;;;9.95;6.10;;;;;;;7.24;100.00;96269.16;5091175;28;20024;-67
2023/12/22 11:05:28;;;;;;;6.00;5.30;;;;;;;7.23;100.00;96272.72;5088044;28;20032;-67
2023/12/22 11:07:56;;;;;;;7.95;6.68;;;;;;;7.25;100.00;96271.66;5089434;28;20495;-67
2023/12/22 11:10:22;;;;;;;9.57;8.65;;;;;;;7.25;100.00;96276.06;5090951;28;20043;-67
2023/12/22 11:12:48;;;;;;;10.70;9.65;;;;;;;7.29;100.00;96274.91;5092252;28;20031;-67
2023/12/22 11:15:15;;;;;;;5.47;4.65;;;;;;;7.38;100.00;96284.72;5093300;28;20031;-67
2023/12/22 11:17:42;;;;;;;5.57;4.75;;;;;;;7.46;100.00;96281.56;5093569;28;20069;-67
2023/12/22 11:20:13;;;;;;;4.47;3.47;;;;;;;7.53;100.00;96287.22;5090877;28;20076;-67